Hanamaulu, HI (96715)

10:15 AM HST on February 21, 2017 (GMT -1000)
Uluko | | Change Station
Active Advisory: Small Craft Advisory

Elev 187 ft 21.96 °N, 159.37 °W | Updated 5 seconds ago

Partly Cloudy
Partly Cloudy
75.7 °F
Feels Like 78 °F
N
10.1
Wind Variable Wind from NE
Gusts 11.0 mph

Today
High -- | Low -- °F
--% Chance of Precip.
Yesterday
High -- | Low -- °F
Precip. -- in
Pressure 30.31 in
Visibility 10.0 miles
Clouds Few 3200 ft
Heat Index 78 °F
Dew Point 63 °F
Humidity 65%
Rainfall 0.00 in
Snow Depth Not available.
7:04 AM 6:38 PM
Waning Crescent, 23% visible
METAR PHLI 211953Z 06016KT 10SM FEW032 24/15 A3031 RMK AO2 SLP262 T02390150
Pressure 30.31 in
Visibility 10.0 miles
Clouds Few 3200 ft
Heat Index 78 °F
Dew Point 63 °F
Humidity 65%
Rainfall 0.00 in
Snow Depth Not available.
7:04 AM 6:38 PM
Waning Crescent, 23% visible
METAR PHLI 211953Z 06016KT 10SM FEW032 24/15 A3031 RMK AO2 SLP262 T02390150

Get Your Daily Forecast Email!

Thanks for signing up!

Be on the lookout for a verification email in your inbox.

You'll start receiving the daily forecast at 8 AM.

×

10-Day Weather Forecast

Almanac

Astronomy

Feb. 21, 2017 Rise Set
Actual Time
Civil Twilight
Nautical Twilight
Astronomical Twilight
Moon
Length of Visible Light
Length of Day
Tomorrow will be .
, % of the Moon is Illuminated

Today's Extremes

State Highs State Lows

Community

WunderPhotos

Upload Photos

1,962,540 photos uploaded!

WunderBlog® & News

Nearby

Air Quality

  Air Quality AQ Index Pollutant
Not available.

Snow Depth

Station Depth Elevation

Earthquake Activity

City Distance Mag. Time & Date
Minimum magnitude displayed is 2.5.

Coastal Water Temperatures

Place Temperature

Stations

Nearby Weather Stations

Station Location Temp. Windchill Dew Point Humidity Wind Precip. Elev Updated Type
                   

Watches & Warnings

Small Craft Advisory
Issued: 3:51 AM HST Feb. 21, 2017 – National Weather Service

... Small Craft Advisory remains in effect until 6 PM HST
Wednesday...

* winds and seas... east winds 20 to 30 kt. Seas 8 to 12 ft.

Precautionary/preparedness actions...

A Small Craft Advisory means that winds speeds of 25 to 33 knots
and/or seas 10 feet or greater are expected to produce conditions
hazardous to small craft. Inexperienced mariners... especially
those operating smaller vessels... should avoid navigating in
these conditions.



Ts